createdAt,value
2023-01-05T00:02:04.156Z,102078.81
2023-01-05T00:04:34.312Z,102066.84
2023-01-05T00:07:04.556Z,102062.88
2023-01-05T00:09:34.626Z,102060.00
2023-01-05T00:12:20.242Z,102060.66
2023-01-05T00:15:02.690Z,102051.97
2023-01-05T00:17:45.149Z,102051.59
2023-01-05T00:20:31.199Z,102053.72
2023-01-05T00:23:01.316Z,102056.03
2023-01-05T00:25:34.035Z,102050.97
2023-01-05T00:28:07.697Z,102051.44
2023-01-05T00:30:43.352Z,102044.97
2023-01-05T00:33:14.526Z,102045.75
2023-01-05T00:35:44.739Z,102049.44
2023-01-05T00:38:15.557Z,102053.03
2023-01-05T00:40:45.667Z,102053.47
2023-01-05T00:43:18.386Z,102044.38
2023-01-05T00:45:48.656Z,102047.44
2023-01-05T00:48:18.863Z,102044.78
2023-01-05T00:50:52.512Z,102043.41
2023-01-05T00:53:22.774Z,102044.41
2023-01-05T00:55:59.807Z,102045.31
2023-01-05T00:58:32.549Z,102038.78
2023-01-05T01:01:02.931Z,102038.19
2023-01-05T01:03:33.212Z,102033.34
2023-01-05T01:06:03.333Z,102035.44
2023-01-05T01:08:33.554Z,102043.94
2023-01-05T01:11:08.052Z,102038.63
2023-01-05T01:13:41.632Z,102033.00
2023-01-05T01:16:13.384Z,102022.28
2023-01-05T01:18:44.552Z,102021.28
2023-01-05T01:21:14.792Z,102022.34
2023-01-05T01:23:45.068Z,102016.31
2023-01-05T01:26:16.964Z,102008.31
2023-01-05T01:28:50.555Z,102011.91
2023-01-05T01:31:20.767Z,102008.56
2023-01-05T01:33:51.213Z,102004.53
2023-01-05T01:36:21.372Z,102003.16
2023-01-05T01:38:51.507Z,101998.44
2023-01-05T01:41:21.822Z,101993.53
2023-01-05T01:43:56.477Z,101983.97
2023-01-05T01:46:28.102Z,101977.69
2023-01-05T01:49:02.223Z,101973.03
2023-01-05T01:51:35.611Z,101976.09
2023-01-05T01:54:10.164Z,101958.97
2023-01-05T01:56:43.065Z,101956.47
2023-01-05T01:59:17.626Z,101962.03
2023-01-05T02:01:48.099Z,101952.16
2023-01-05T02:04:18.544Z,101953.69
2023-01-05T02:06:48.770Z,101946.00
2023-01-05T02:09:19.077Z,101950.31
2023-01-05T02:12:01.268Z,101950.69
2023-01-05T02:14:42.307Z,101943.72
2023-01-05T02:17:22.034Z,101941.13
2023-01-05T02:20:36.402Z,101925.16
2023-01-05T02:23:30.676Z,101932.22
2023-01-05T02:26:27.610Z,101937.38
2023-01-05T02:29:15.020Z,101930.28
2023-01-05T02:31:52.013Z,101916.91
2023-01-05T02:34:31.501Z,101913.38
2023-01-05T02:37:09.080Z,101903.47
2023-01-05T02:39:46.187Z,101909.53
2023-01-05T02:42:20.793Z,101906.19
2023-01-05T02:44:51.064Z,101896.91
2023-01-05T02:47:43.241Z,101892.25
2023-01-05T02:50:22.874Z,101889.38
2023-01-05T02:52:59.777Z,101897.13
2023-01-05T02:55:36.147Z,101891.91
2023-01-05T02:58:11.234Z,101899.75
2023-01-05T03:00:45.544Z,101900.63
2023-01-05T03:03:22.229Z,101895.13
2023-01-05T03:05:57.194Z,101891.44
2023-01-05T03:08:32.797Z,101881.66
2023-01-05T03:11:18.656Z,101880.88
2023-01-05T03:13:51.979Z,101879.78
2023-01-05T03:16:28.316Z,101875.41
2023-01-05T03:19:16.835Z,101876.81
2023-01-05T03:22:00.544Z,101881.38
2023-01-05T03:24:42.942Z,101870.22
2023-01-05T03:27:25.654Z,101869.41
2023-01-05T03:30:09.621Z,101869.97
2023-01-05T03:32:59.313Z,101868.09
2023-01-05T03:35:38.350Z,101871.94
2023-01-05T03:38:18.502Z,101874.38
2023-01-05T03:40:49.767Z,101863.44
2023-01-05T03:43:20.382Z,101859.78
2023-01-05T03:45:56.132Z,101854.94
2023-01-05T03:48:28.412Z,101851.50
2023-01-05T03:51:01.210Z,101838.44
2023-01-05T03:53:31.349Z,101842.16
2023-01-05T03:56:01.560Z,101833.19
2023-01-05T03:58:31.679Z,101838.31
2023-01-05T04:01:01.752Z,101836.28
2023-01-05T04:03:32.470Z,101833.44
2023-01-05T04:06:05.477Z,101832.41
2023-01-05T04:08:35.640Z,101820.50
2023-01-05T04:11:20.130Z,101819.53
2023-01-05T04:13:50.741Z,101813.13
2023-01-05T04:16:21.826Z,101812.66
2023-01-05T04:18:52.027Z,101809.19
2023-01-05T04:21:24.788Z,101808.06
2023-01-05T04:23:54.932Z,101810.75
2023-01-05T04:26:25.098Z,101814.16
2023-01-05T04:28:55.252Z,101818.03
2023-01-05T04:31:25.397Z,101821.50
2023-01-05T04:33:55.572Z,101821.78
2023-01-05T04:36:28.332Z,101822.72
2023-01-05T04:38:58.453Z,101803.28
2023-01-05T04:41:28.660Z,101818.38
2023-01-05T04:43:58.815Z,101820.69
2023-01-05T04:46:29.114Z,101809.31
2023-01-05T04:48:59.335Z,101810.44
2023-01-05T04:51:32.147Z,101816.97
2023-01-05T04:54:02.233Z,101821.59
2023-01-05T04:56:32.382Z,101812.88
2023-01-05T04:59:02.533Z,101809.72
2023-01-05T05:01:32.730Z,101814.00
2023-01-05T05:04:03.008Z,101805.56
2023-01-05T05:06:35.761Z,101806.44
2023-01-05T05:09:06.448Z,101802.66
2023-01-05T05:11:36.540Z,101798.31
2023-01-05T05:14:06.781Z,101798.91
2023-01-05T05:16:36.920Z,101795.28
2023-01-05T05:19:07.092Z,101800.72
2023-01-05T05:21:39.802Z,101797.56
2023-01-05T05:24:10.452Z,101791.28
2023-01-05T05:26:40.617Z,101787.13
2023-01-05T05:29:10.978Z,101793.31
2023-01-05T05:31:41.424Z,101791.69
2023-01-05T05:34:11.737Z,101790.38
2023-01-05T05:36:44.543Z,101778.44
2023-01-05T05:39:15.283Z,101752.72
2023-01-05T05:41:45.426Z,101777.50
2023-01-05T05:44:15.538Z,101768.94
2023-01-05T05:46:45.781Z,101770.28
2023-01-05T05:49:16.575Z,101762.28
2023-01-05T05:51:49.378Z,101756.22
2023-01-05T05:54:19.628Z,101747.81
2023-01-05T05:56:49.828Z,101754.28
2023-01-05T05:59:19.981Z,101746.94
2023-01-05T06:01:50.307Z,101740.69
2023-01-05T06:04:20.652Z,101740.22
2023-01-05T06:06:53.444Z,101738.81
2023-01-05T06:09:25.176Z,101738.72
2023-01-05T06:11:55.600Z,101745.94
2023-01-05T06:14:25.874Z,101747.16
2023-01-05T06:16:56.104Z,101738.81
2023-01-05T06:19:26.212Z,101731.41
2023-01-05T06:21:59.001Z,101730.44
2023-01-05T06:24:29.332Z,101727.50
2023-01-05T06:26:59.497Z,101728.41
2023-01-05T06:29:29.694Z,101731.66
2023-01-05T06:31:59.930Z,101728.06
2023-01-05T06:34:30.158Z,101727.69
2023-01-05T06:37:02.991Z,101724.63
2023-01-05T06:39:33.102Z,101731.94
2023-01-05T06:42:03.334Z,101732.53
2023-01-05T06:44:33.519Z,101715.78
2023-01-05T06:47:03.620Z,101717.66
2023-01-05T06:49:33.864Z,101717.53
2023-01-05T06:52:10.871Z,101705.00
2023-01-05T06:54:45.974Z,101718.13
2023-01-05T06:57:16.156Z,101710.88
2023-01-05T06:59:46.264Z,101707.66
2023-01-05T07:02:18.551Z,101703.63
2023-01-05T07:04:48.887Z,101706.38
2023-01-05T07:07:21.639Z,101709.75
2023-01-05T07:09:52.161Z,101702.53
2023-01-05T07:12:22.298Z,101698.06
2023-01-05T07:14:57.316Z,101698.25
2023-01-05T07:17:28.029Z,101692.44
2023-01-05T07:19:58.114Z,101697.22
2023-01-05T07:22:31.253Z,101695.34
2023-01-05T07:25:01.599Z,101691.69
2023-01-05T07:27:32.020Z,101684.03
2023-01-05T07:30:02.200Z,101689.94
2023-01-05T07:32:32.344Z,101672.97
2023-01-05T07:35:02.555Z,101670.88
2023-01-05T07:37:35.346Z,101681.25
2023-01-05T07:40:05.529Z,101667.56
2023-01-05T07:42:36.389Z,101678.00
2023-01-05T07:45:07.111Z,101666.50
2023-01-05T07:47:37.365Z,101668.41
2023-01-05T07:50:08.672Z,101662.66
2023-01-05T07:52:42.237Z,101668.53
2023-01-05T07:55:13.189Z,101661.97
2023-01-05T07:57:43.370Z,101665.91
2023-01-05T08:00:15.273Z,101642.44
2023-01-05T08:02:46.439Z,101654.75
2023-01-05T08:05:16.577Z,101656.16
2023-01-05T08:07:49.283Z,101660.94
2023-01-05T08:10:31.524Z,101666.50
2023-01-05T08:13:17.803Z,101658.44
2023-01-05T08:15:51.281Z,101654.59
2023-01-05T08:18:21.679Z,101647.63
2023-01-05T08:20:55.945Z,101642.19
2023-01-05T08:23:31.407Z,101632.47
2023-01-05T08:26:07.649Z,101637.25
2023-01-05T08:28:39.771Z,101635.72
2023-01-05T08:31:11.327Z,101634.47
2023-01-05T08:33:41.582Z,101633.47
2023-01-05T08:36:13.535Z,101620.84
2023-01-05T08:38:48.805Z,101625.19
2023-01-05T08:41:20.386Z,101629.13
2023-01-05T08:43:54.020Z,101623.97
2023-01-05T08:46:25.753Z,101615.44
2023-01-05T08:48:57.753Z,101607.03
2023-01-05T08:51:28.344Z,101604.22
2023-01-05T08:54:01.700Z,101600.94
2023-01-05T08:56:38.245Z,101593.28
2023-01-05T08:59:09.212Z,101591.88
2023-01-05T09:01:39.870Z,101587.91
2023-01-05T09:04:10.107Z,101586.56
2023-01-05T09:06:40.298Z,101580.53
2023-01-05T09:09:13.249Z,101567.28
2023-01-05T09:11:43.521Z,101560.59
2023-01-05T09:14:17.789Z,101544.72
2023-01-05T09:19:38.745Z,101532.78
2023-01-05T09:22:08.937Z,101527.59
2023-01-05T09:24:42.114Z,101520.88
2023-01-05T09:27:12.286Z,101516.13
2023-01-05T09:29:42.442Z,101507.25
2023-01-05T09:32:12.633Z,101500.13
2023-01-05T09:34:42.996Z,101487.06
2023-01-05T09:37:13.174Z,101490.69
2023-01-05T09:39:45.951Z,101483.75
2023-01-05T09:42:19.892Z,101469.41
2023-01-05T09:44:58.648Z,101471.00
2023-01-05T09:47:33.658Z,101460.88
2023-01-05T09:50:04.559Z,101451.47
2023-01-05T09:52:38.416Z,101440.88
2023-01-05T09:55:16.070Z,101443.34
2023-01-05T09:57:50.358Z,101438.34
2023-01-05T10:00:21.829Z,101413.88
2023-01-05T10:02:55.288Z,101417.97
2023-01-05T10:05:26.961Z,101415.72
2023-01-05T10:08:03.584Z,101413.88
2023-01-05T10:11:08.231Z,101404.13
2023-01-05T10:13:38.529Z,101396.03
2023-01-05T10:16:10.300Z,101398.28
2023-01-05T10:18:40.537Z,101379.84
2023-01-05T10:21:18.898Z,101361.22
2023-01-05T10:24:24.445Z,101376.00
2023-01-05T10:30:04.073Z,101353.56
2023-01-05T10:32:50.235Z,101343.41
2023-01-05T10:36:00.138Z,101340.44
2023-01-05T10:38:43.817Z,101332.25
2023-01-05T10:41:22.387Z,101328.78
2023-01-05T10:44:23.142Z,101323.28
2023-01-05T10:46:53.598Z,101297.41
2023-01-05T10:49:29.006Z,101300.50
2023-01-05T10:52:01.261Z,101305.22
2023-01-05T10:54:40.540Z,101294.06
2023-01-05T10:57:37.049Z,101295.34
2023-01-05T11:00:14.382Z,101284.44
2023-01-05T11:02:50.502Z,101298.88
2023-01-05T11:05:33.898Z,101286.06
2023-01-05T11:08:06.541Z,101282.00
2023-01-05T11:10:39.333Z,101286.88
2023-01-05T11:13:21.892Z,101274.75
2023-01-05T11:15:57.967Z,101273.94
2023-01-05T11:18:37.111Z,101274.03
2023-01-05T11:21:19.540Z,101263.28
2023-01-05T11:23:51.143Z,101258.69
2023-01-05T11:26:26.699Z,101263.25
2023-01-05T11:29:06.195Z,101247.19
2023-01-05T11:31:43.195Z,101247.66
2023-01-05T11:34:28.975Z,101250.84
2023-01-05T11:37:05.796Z,101237.50
2023-01-05T11:39:42.001Z,101238.22
2023-01-05T11:42:24.661Z,101242.72
2023-01-05T11:44:58.995Z,101226.34
2023-01-05T11:47:41.299Z,101213.53
2023-01-05T11:50:25.279Z,101220.44
2023-01-05T11:52:57.577Z,101208.78
2023-01-05T11:55:38.135Z,101206.25
2023-01-05T11:58:18.564Z,101209.59
2023-01-05T12:01:11.381Z,101199.25
2023-01-05T12:04:06.701Z,101190.66
2023-01-05T12:06:59.165Z,101192.03
2023-01-05T12:09:35.531Z,101185.75
2023-01-05T12:12:26.727Z,101181.97
2023-01-05T12:15:25.303Z,101186.47
2023-01-05T12:18:05.919Z,101161.53
2023-01-05T12:20:52.937Z,101173.84
2023-01-05T12:24:01.996Z,101161.13
2023-01-05T12:26:37.104Z,101160.72
2023-01-05T12:35:46.253Z,101151.50
2023-01-05T12:38:27.550Z,101163.00
2023-01-05T12:41:18.352Z,101148.81
2023-01-05T12:44:01.740Z,101149.66
2023-01-05T12:46:53.042Z,101132.63
2023-01-05T12:49:29.468Z,101124.56
2023-01-05T12:52:09.184Z,101119.97
2023-01-05T12:54:47.399Z,101133.75
2023-01-05T12:57:21.961Z,101141.47
2023-01-05T12:59:59.370Z,101133.63
2023-01-05T13:02:39.541Z,101133.94
2023-01-05T13:05:16.932Z,101127.34
2023-01-05T13:07:55.304Z,101142.06
2023-01-05T13:10:31.895Z,101132.50
2023-01-05T13:13:07.170Z,101131.88
2023-01-05T13:15:44.032Z,101132.91
2023-01-05T13:18:20.812Z,101124.25
2023-01-05T13:20:56.461Z,101132.59
2023-01-05T13:23:32.262Z,101142.72
2023-01-05T13:26:07.179Z,101147.88
2023-01-05T13:28:38.200Z,101152.25
2023-01-05T13:31:26.891Z,101158.59
2023-01-05T13:34:20.514Z,101158.41
2023-01-05T13:37:08.611Z,101158.91
2023-01-05T13:39:55.546Z,101164.44
2023-01-05T13:42:59.218Z,101169.41
2023-01-05T13:45:57.878Z,101168.16
2023-01-05T13:49:04.886Z,101177.56
2023-01-05T13:51:57.609Z,101175.66
2023-01-05T13:55:00.388Z,101175.78
2023-01-05T13:57:38.356Z,101127.94
2023-01-05T14:00:23.776Z,101152.06
2023-01-05T14:03:07.501Z,101143.00
2023-01-05T14:05:49.469Z,101132.22
2023-01-05T14:08:26.059Z,101122.94
2023-01-05T14:11:19.377Z,101099.66
2023-01-05T14:13:53.042Z,101101.41
2023-01-05T14:17:04.768Z,101104.84
2023-01-05T14:19:55.588Z,101099.81
2023-01-05T14:22:38.612Z,101096.72
2023-01-05T14:25:38.689Z,101092.59
2023-01-05T14:28:55.834Z,101096.31
2023-01-05T14:31:55.706Z,101088.56
2023-01-05T14:34:27.581Z,101092.84
2023-01-05T14:37:09.267Z,101108.72
2023-01-05T14:39:45.472Z,101096.78
2023-01-05T14:42:33.200Z,101103.53
2023-01-05T14:45:06.974Z,101106.13
2023-01-05T14:47:43.895Z,101109.81
2023-01-05T14:50:34.172Z,101099.84
2023-01-05T14:53:07.668Z,101096.06
2023-01-05T14:55:40.380Z,101092.69
2023-01-05T14:58:16.250Z,101092.63
2023-01-05T15:00:57.947Z,101096.63
2023-01-05T15:03:39.684Z,101089.66
2023-01-05T15:06:13.244Z,101093.78
2023-01-05T15:09:10.052Z,101093.97
2023-01-05T15:12:18.707Z,101096.75
2023-01-05T15:15:04.188Z,101091.00
2023-01-05T15:18:04.067Z,101084.78
2023-01-05T15:21:04.637Z,101089.22
2023-01-05T15:23:56.306Z,101090.63
2023-01-05T15:26:42.137Z,101096.97
2023-01-05T15:29:43.172Z,101103.63
2023-01-05T15:32:20.321Z,101081.09
2023-01-05T15:34:56.630Z,101102.03
2023-01-05T15:37:36.680Z,101103.06
2023-01-05T15:40:09.497Z,101102.47
2023-01-05T15:42:42.800Z,101101.09
2023-01-05T15:45:21.550Z,101095.50
2023-01-05T15:47:52.874Z,101101.53
2023-01-05T15:50:25.804Z,101116.63
2023-01-05T15:53:00.455Z,101109.28
2023-01-05T15:55:32.668Z,101116.66
2023-01-05T15:58:06.452Z,101114.06
2023-01-05T16:00:39.255Z,101117.50
2023-01-05T16:03:23.709Z,101114.25
2023-01-05T16:06:00.174Z,101115.16
2023-01-05T16:08:34.832Z,101110.16
2023-01-05T16:11:09.784Z,101112.34
2023-01-05T16:13:44.667Z,101119.31
2023-01-05T16:16:49.825Z,101127.59
2023-01-05T16:19:12.600Z,101123.69
2023-01-05T16:21:45.901Z,101131.00
2023-01-05T16:24:26.322Z,101130.88
2023-01-05T16:26:56.624Z,101127.88
2023-01-05T16:29:36.474Z,101129.75
2023-01-05T16:32:07.086Z,101114.59
2023-01-05T16:34:37.294Z,101123.88
2023-01-05T16:37:09.386Z,101112.84
2023-01-05T16:39:43.728Z,101109.28
2023-01-05T16:42:43.513Z,101102.69
2023-01-05T16:45:35.401Z,101108.13
2023-01-05T16:48:05.682Z,101122.63
2023-01-05T16:50:57.455Z,101109.22
2023-01-05T16:53:27.676Z,101094.66
2023-01-05T16:56:00.948Z,101091.72
2023-01-05T16:58:39.940Z,101100.66
2023-01-05T17:01:30.192Z,101093.28
2023-01-05T17:04:00.475Z,101080.88
2023-01-05T17:06:33.187Z,101073.00
2023-01-05T17:09:04.869Z,101075.19
2023-01-05T17:11:39.589Z,101075.78
2023-01-05T17:14:11.036Z,101074.41
2023-01-05T17:16:41.255Z,101085.56
2023-01-05T17:19:15.931Z,101076.19
2023-01-05T17:21:47.953Z,101076.06
2023-01-05T17:24:18.174Z,101076.75
2023-01-05T17:26:51.596Z,101081.59
2023-01-05T17:29:23.897Z,101075.72
2023-01-05T17:31:54.262Z,101082.28
2023-01-05T17:34:24.842Z,101084.53
2023-01-05T17:36:58.250Z,101081.59
2023-01-05T17:39:28.863Z,101079.81
2023-01-05T17:42:23.655Z,101084.09
2023-01-05T17:44:54.663Z,101079.19
2023-01-05T17:47:24.821Z,101075.34
2023-01-05T17:49:55.037Z,101078.19
2023-01-05T17:52:25.194Z,101067.06
2023-01-05T17:54:55.306Z,101075.53
2023-01-05T17:57:28.068Z,101070.91
2023-01-05T17:59:58.305Z,101070.50
2023-01-05T18:02:28.535Z,101065.16
2023-01-05T18:04:59.533Z,101065.97
2023-01-05T18:07:31.895Z,101062.56
2023-01-05T18:10:02.734Z,101066.06
2023-01-05T18:12:35.626Z,101061.22
2023-01-05T18:15:05.726Z,101065.16
2023-01-05T18:20:06.148Z,101062.69
2023-01-05T18:22:37.068Z,101065.38
2023-01-05T18:25:08.316Z,101070.84
2023-01-05T18:27:41.582Z,101070.59
2023-01-05T18:30:13.641Z,101083.66
2023-01-05T18:32:44.685Z,101072.44
2023-01-05T18:35:15.202Z,101065.59
2023-01-05T18:37:45.485Z,101066.88
2023-01-05T18:40:16.199Z,101062.28
2023-01-05T18:42:48.970Z,101056.56
2023-01-05T18:45:26.172Z,101061.75
2023-01-05T18:48:02.254Z,101051.66
2023-01-05T18:50:33.423Z,101053.91
2023-01-05T18:53:03.731Z,101054.69
2023-01-05T18:55:33.875Z,101064.22
2023-01-05T18:58:06.592Z,101086.63
2023-01-05T19:00:36.735Z,101078.59
2023-01-05T19:03:06.959Z,101071.28
2023-01-05T19:05:39.312Z,101063.38
2023-01-05T19:08:09.687Z,101070.22
2023-01-05T19:10:40.373Z,101066.13
2023-01-05T19:13:13.115Z,101065.75
2023-01-05T19:15:43.261Z,101073.72
2023-01-05T19:18:13.394Z,101081.66
2023-01-05T19:20:43.640Z,101055.41
2023-01-05T19:23:13.811Z,101076.94
2023-01-05T19:25:44.019Z,101074.56
2023-01-05T19:28:16.812Z,101075.53
2023-01-05T19:30:47.011Z,101063.38
2023-01-05T19:33:18.696Z,101064.28
2023-01-05T19:35:48.843Z,101059.09
2023-01-05T19:38:19.007Z,101061.31
2023-01-05T19:40:49.164Z,101055.44
2023-01-05T19:43:21.874Z,101056.59
2023-01-05T19:45:51.968Z,101050.72
2023-01-05T19:48:22.147Z,101051.13
2023-01-05T19:51:00.266Z,101050.28
2023-01-05T19:53:30.774Z,101050.28
2023-01-05T19:56:02.954Z,101050.19
2023-01-05T19:58:36.570Z,101012.78
2023-01-05T20:01:10.751Z,101045.16
2023-01-05T20:03:40.999Z,101050.38
2023-01-05T20:06:13.900Z,101041.81
2023-01-05T20:08:44.476Z,101046.16
2023-01-05T20:11:17.041Z,101042.16
2023-01-05T20:13:53.889Z,101043.03
2023-01-05T20:16:24.051Z,101041.41
2023-01-05T20:18:55.457Z,101039.19
2023-01-05T20:21:25.654Z,101036.63
2023-01-05T20:23:55.847Z,101041.19
2023-01-05T20:26:27.143Z,101033.19
2023-01-05T20:29:00.968Z,101008.47
2023-01-05T20:31:34.168Z,101034.38
2023-01-05T20:34:07.340Z,101044.56
2023-01-05T20:36:38.272Z,101033.38
2023-01-05T20:39:10.021Z,101035.53
2023-01-05T20:41:42.687Z,101029.22
2023-01-05T20:44:16.802Z,101026.53
2023-01-05T20:46:52.020Z,101022.03
2023-01-05T20:49:22.701Z,101016.59
2023-01-05T20:51:53.395Z,101012.38
2023-01-05T20:54:23.647Z,101014.75
2023-01-05T20:56:53.790Z,101009.31
2023-01-05T20:59:30.288Z,101008.00
2023-01-05T21:02:02.637Z,100996.72
2023-01-05T21:04:34.537Z,101008.53
2023-01-05T21:07:04.657Z,101022.47
2023-01-05T21:09:35.187Z,101021.03
2023-01-05T21:12:05.298Z,101019.13
2023-01-05T21:14:38.232Z,101031.69
2023-01-05T21:17:08.774Z,101038.28
2023-01-05T21:19:39.927Z,101036.13
2023-01-05T21:22:10.174Z,101042.03
2023-01-05T21:24:41.229Z,101031.06
2023-01-05T21:27:11.408Z,101019.19
2023-01-05T21:29:44.218Z,101020.50
2023-01-05T21:32:14.356Z,101024.06
2023-01-05T21:34:45.386Z,101026.66
2023-01-05T21:37:15.496Z,101038.69
2023-01-05T21:39:45.634Z,101042.66
2023-01-05T21:42:28.003Z,101054.91
2023-01-05T21:45:00.810Z,101059.88
2023-01-05T21:47:30.924Z,101060.16
2023-01-05T21:50:01.080Z,101050.94
2023-01-05T21:52:43.454Z,101048.06
2023-01-05T21:55:28.422Z,101047.09
2023-01-05T21:57:58.662Z,101049.22
2023-01-05T22:00:32.206Z,101033.81
2023-01-05T22:03:02.363Z,101038.53
2023-01-05T22:05:32.562Z,101045.72
2023-01-05T22:08:02.657Z,101046.09
2023-01-05T22:10:32.823Z,101034.75
2023-01-05T22:13:03.019Z,101035.44
2023-01-05T22:15:35.787Z,101035.19
2023-01-05T22:18:05.909Z,101036.56
2023-01-05T22:20:35.978Z,101042.97
2023-01-05T22:23:06.081Z,101039.53
2023-01-05T22:25:36.854Z,101032.88
